createdAt,value
2022-12-19T00:01:34.795Z,18.48
2022-12-19T00:04:07.063Z,18.65
2022-12-19T00:06:35.619Z,19.10
2022-12-19T00:09:02.092Z,18.30
2022-12-19T00:11:29.388Z,18.70
2022-12-19T00:13:56.159Z,16.95
2022-12-19T00:16:24.846Z,18.70
2022-12-19T00:18:55.212Z,17.42
2022-12-19T00:21:23.979Z,18.10
2022-12-19T00:23:51.100Z,16.40
2022-12-19T00:26:18.945Z,21.70
2022-12-19T00:28:48.587Z,18.40
2022-12-19T00:31:17.014Z,19.38
2022-12-19T00:33:44.208Z,15.88
2022-12-19T00:36:14.939Z,17.13
2022-12-19T00:38:43.947Z,17.73
2022-12-19T00:41:19.524Z,19.15
2022-12-19T00:43:49.351Z,20.02
2022-12-19T00:46:16.059Z,18.08
2022-12-19T00:48:43.131Z,17.58
2022-12-19T00:51:16.936Z,16.63
2022-12-19T00:53:44.555Z,17.00
2022-12-19T00:56:19.255Z,17.23
2022-12-19T00:58:47.389Z,14.60
2022-12-19T01:01:17.080Z,14.43
2022-12-19T01:04:04.384Z,15.88
2022-12-19T01:06:30.090Z,14.77
2022-12-19T01:08:56.831Z,14.50
2022-12-19T01:11:43.688Z,15.18
2022-12-19T01:14:14.946Z,13.45
2022-12-19T01:16:44.244Z,16.77
2022-12-19T01:19:10.677Z,15.80
2022-12-19T01:21:37.597Z,15.00
2022-12-19T01:24:05.189Z,15.80
2022-12-19T01:26:31.752Z,15.27
2022-12-19T01:28:58.251Z,15.65
2022-12-19T01:31:24.670Z,15.88
2022-12-19T01:33:51.082Z,15.55
2022-12-19T01:36:18.130Z,14.93
2022-12-19T01:38:44.546Z,15.18
2022-12-19T01:41:11.065Z,13.93
2022-12-19T01:43:56.072Z,14.95
2022-12-19T01:48:54.847Z,14.43
2022-12-19T01:51:26.830Z,15.30
2022-12-19T01:53:58.824Z,13.73
2022-12-19T01:56:31.807Z,15.88
2022-12-19T01:59:05.751Z,16.90
2022-12-19T02:01:32.906Z,16.38
2022-12-19T02:04:01.726Z,15.10
2022-12-19T02:06:30.211Z,15.52
2022-12-19T02:08:56.765Z,15.40
2022-12-19T02:11:23.124Z,15.90
2022-12-19T02:13:49.684Z,15.40
2022-12-19T02:16:49.170Z,15.65
2022-12-19T02:19:48.282Z,16.83
2022-12-19T02:22:44.870Z,15.80
2022-12-19T02:25:24.682Z,15.77
2022-12-19T02:28:06.359Z,16.88
2022-12-19T02:31:16.403Z,18.10
2022-12-19T02:33:56.749Z,14.65
2022-12-19T02:36:33.966Z,17.38
2022-12-19T02:39:41.145Z,16.98
2022-12-19T02:42:12.185Z,17.52
2022-12-19T02:44:52.760Z,13.57
2022-12-19T02:47:21.484Z,16.63
2022-12-19T02:49:48.550Z,17.83
2022-12-19T02:52:20.624Z,16.88
2022-12-19T02:54:53.470Z,16.92
2022-12-19T02:57:28.321Z,16.15
2022-12-19T03:00:17.639Z,15.60
2022-12-19T03:03:14.536Z,18.10
2022-12-19T03:06:11.973Z,17.10
2022-12-19T03:08:52.224Z,17.73
2022-12-19T03:11:22.180Z,17.25
2022-12-19T03:13:55.591Z,16.17
2022-12-19T03:16:22.920Z,15.40
2022-12-19T03:18:49.699Z,18.00
2022-12-19T03:21:34.516Z,16.58
2022-12-19T03:24:02.246Z,17.17
2022-12-19T03:26:32.792Z,15.35
2022-12-19T03:29:09.004Z,17.10
2022-12-19T03:31:37.845Z,15.82
2022-12-19T03:34:13.605Z,16.00
2022-12-19T03:36:45.863Z,17.05
2022-12-19T03:39:14.530Z,16.40
2022-12-19T03:42:02.300Z,16.17
2022-12-19T03:44:33.412Z,15.35
2022-12-19T03:47:40.698Z,15.27
2022-12-19T03:50:08.463Z,14.95
2022-12-19T03:53:04.228Z,14.10
2022-12-19T03:55:43.126Z,13.13
2022-12-19T03:58:12.738Z,14.23
2022-12-19T04:00:43.690Z,13.00
2022-12-19T04:03:11.633Z,13.00
2022-12-19T04:05:40.162Z,11.35
2022-12-19T04:08:09.019Z,11.73
2022-12-19T04:10:44.370Z,12.07
2022-12-19T04:13:17.871Z,11.48
2022-12-19T04:15:47.116Z,10.55
2022-12-19T04:18:15.833Z,10.77
2022-12-19T04:20:49.336Z,11.15
2022-12-19T04:23:27.133Z,10.57
2022-12-19T04:26:00.387Z,9.80
2022-12-19T04:28:43.570Z,11.02
2022-12-19T04:31:14.636Z,10.18
2022-12-19T04:33:41.573Z,10.82
2022-12-19T04:36:08.532Z,9.65
2022-12-19T04:38:34.968Z,10.30
2022-12-19T04:41:01.500Z,9.95
2022-12-19T04:43:27.877Z,9.00
2022-12-19T04:45:57.503Z,9.27
2022-12-19T04:48:24.756Z,8.60
2022-12-19T04:50:51.184Z,8.93
2022-12-19T04:53:17.627Z,9.45
2022-12-19T04:55:44.191Z,9.18
2022-12-19T04:58:11.343Z,10.20
2022-12-19T05:00:37.692Z,8.63
2022-12-19T05:03:04.498Z,8.90
2022-12-19T05:05:30.979Z,7.80
2022-12-19T05:07:57.524Z,9.32
2022-12-19T05:10:24.026Z,8.48
2022-12-19T05:12:50.400Z,8.85
2022-12-19T05:15:17.168Z,9.43
2022-12-19T05:17:43.547Z,8.10
2022-12-19T05:20:10.792Z,8.43
2022-12-19T05:22:37.157Z,8.57
2022-12-19T05:25:03.733Z,9.50
2022-12-19T05:27:30.969Z,9.43
2022-12-19T05:29:57.375Z,9.20
2022-12-19T05:32:23.811Z,8.85
2022-12-19T05:34:50.232Z,8.90
2022-12-19T05:37:16.663Z,8.82
2022-12-19T05:39:43.054Z,10.00
2022-12-19T05:42:12.293Z,8.55
2022-12-19T05:44:39.268Z,8.60
2022-12-19T05:47:05.693Z,9.52
2022-12-19T05:49:32.103Z,9.68
2022-12-19T05:51:58.521Z,9.55
2022-12-19T05:54:25.841Z,9.32
2022-12-19T05:56:52.267Z,9.75
2022-12-19T05:59:18.709Z,9.18
2022-12-19T06:01:45.219Z,8.57
2022-12-19T06:04:11.684Z,9.60
2022-12-19T06:06:38.094Z,9.48
2022-12-19T06:09:04.639Z,9.88
2022-12-19T06:11:31.060Z,8.82
2022-12-19T06:13:57.431Z,8.52
2022-12-19T06:16:24.353Z,10.02
2022-12-19T06:18:50.963Z,8.57
2022-12-19T06:21:19.668Z,9.27
2022-12-19T06:23:46.894Z,9.73
2022-12-19T06:26:19.053Z,10.05
2022-12-19T06:28:46.343Z,9.50
2022-12-19T06:31:13.590Z,10.15
2022-12-19T06:33:40.585Z,8.90
2022-12-19T06:36:11.401Z,9.05
2022-12-19T06:38:37.880Z,10.75
2022-12-19T06:41:23.475Z,10.93
2022-12-19T06:43:53.296Z,12.50
2022-12-19T06:46:20.318Z,11.82
2022-12-19T06:48:46.756Z,14.10
2022-12-19T06:51:13.208Z,14.23
2022-12-19T06:53:40.338Z,13.88
2022-12-19T06:56:07.244Z,15.20
2022-12-19T06:58:34.310Z,14.55
2022-12-19T07:01:01.529Z,15.40
2022-12-19T07:03:34.712Z,13.05
2022-12-19T07:06:01.206Z,14.13
2022-12-19T07:08:27.687Z,13.55
2022-12-19T07:10:54.214Z,15.18
2022-12-19T07:13:20.592Z,14.27
2022-12-19T07:15:47.177Z,13.90
2022-12-19T07:18:14.257Z,14.23
2022-12-19T07:20:45.160Z,15.45
2022-12-19T07:23:17.062Z,12.68
2022-12-19T07:25:43.584Z,13.43
2022-12-19T07:28:10.060Z,13.60
2022-12-19T07:30:36.555Z,13.88
2022-12-19T07:33:03.022Z,11.98
2022-12-19T07:35:29.514Z,11.95
2022-12-19T07:38:02.048Z,11.45
2022-12-19T07:40:31.954Z,11.45
2022-12-19T07:43:06.319Z,11.75
2022-12-19T07:45:33.579Z,10.82
2022-12-19T07:48:01.345Z,10.40
2022-12-19T07:50:28.542Z,10.68
2022-12-19T07:52:55.153Z,10.07
2022-12-19T07:55:21.610Z,11.20
2022-12-19T07:57:48.033Z,13.43
2022-12-19T08:00:14.751Z,11.02
2022-12-19T08:02:41.332Z,11.35
2022-12-19T08:05:08.755Z,10.18
2022-12-19T08:07:35.174Z,10.48
2022-12-19T08:10:01.616Z,10.38
2022-12-19T08:12:28.027Z,10.77
2022-12-19T08:14:57.360Z,10.25
2022-12-19T08:17:24.098Z,10.43
2022-12-19T08:19:50.842Z,10.63
2022-12-19T08:22:17.293Z,10.30
2022-12-19T08:24:43.707Z,10.23
2022-12-19T08:27:10.226Z,10.13
2022-12-19T08:29:36.619Z,8.95
2022-12-19T08:32:03.094Z,10.80
2022-12-19T08:34:29.643Z,9.32
2022-12-19T08:36:56.059Z,9.95
2022-12-19T08:39:22.423Z,10.23
2022-12-19T08:41:48.980Z,8.70
2022-12-19T08:44:16.313Z,8.70
2022-12-19T08:46:49.411Z,9.75
2022-12-19T08:49:16.611Z,8.68
2022-12-19T08:51:43.063Z,8.75
2022-12-19T08:54:10.912Z,8.50
2022-12-19T08:56:41.584Z,7.78
2022-12-19T08:59:13.303Z,7.90
2022-12-19T09:01:41.530Z,8.23
2022-12-19T09:04:40.271Z,8.75
2022-12-19T09:06:54.320Z,8.68
2022-12-19T09:09:20.764Z,7.88
2022-12-19T09:11:47.674Z,7.88
2022-12-19T09:14:14.773Z,9.68
2022-12-19T09:16:46.913Z,9.23
2022-12-19T09:19:15.577Z,8.90
2022-12-19T09:21:42.495Z,7.45
2022-12-19T09:24:09.306Z,7.03
2022-12-19T09:26:37.265Z,7.82
2022-12-19T09:29:06.782Z,7.88
2022-12-19T09:31:46.680Z,7.70
2022-12-19T09:34:13.081Z,6.95
2022-12-19T09:36:39.489Z,7.78
2022-12-19T09:39:05.960Z,8.15
2022-12-19T09:41:44.591Z,8.27
2022-12-19T09:44:29.519Z,8.55
2022-12-19T09:47:02.580Z,8.57
2022-12-19T09:49:41.758Z,7.38
2022-12-19T09:52:26.978Z,7.20
2022-12-19T09:55:16.812Z,8.10
2022-12-19T09:58:04.725Z,7.22
2022-12-19T10:00:38.289Z,6.78
2022-12-19T10:03:20.806Z,6.93
2022-12-19T10:06:55.815Z,6.70
2022-12-19T10:09:40.985Z,6.28
2022-12-19T10:12:44.837Z,6.68
2022-12-19T10:15:21.114Z,6.10
2022-12-19T10:18:11.566Z,7.53
2022-12-19T10:20:45.611Z,6.20
2022-12-19T10:23:51.401Z,6.63
2022-12-19T10:26:30.336Z,5.80
2022-12-19T10:29:34.574Z,6.70
2022-12-19T10:32:19.372Z,6.45
2022-12-19T10:37:37.593Z,6.63
2022-12-19T10:40:27.849Z,7.40
2022-12-19T10:42:58.139Z,6.72
2022-12-19T10:45:33.775Z,6.60
2022-12-19T10:48:00.683Z,6.53
2022-12-19T10:50:32.023Z,6.95
2022-12-19T10:53:04.474Z,5.43
2022-12-19T10:55:43.998Z,6.32
2022-12-19T10:58:34.527Z,7.35
2022-12-19T11:01:14.176Z,6.38
2022-12-19T11:03:43.835Z,7.00
2022-12-19T11:06:34.813Z,5.85
2022-12-19T11:09:18.854Z,5.82
2022-12-19T11:12:47.648Z,6.20
2022-12-19T11:18:44.506Z,5.70
2022-12-19T11:23:20.729Z,6.03
2022-12-19T11:29:40.836Z,5.93
2022-12-19T11:29:42.811Z,6.15
2022-12-19T11:30:45.890Z,4.80
2022-12-19T11:32:40.977Z,4.88
2022-12-19T11:35:36.484Z,5.30
2022-12-19T11:38:06.093Z,4.70
2022-12-19T11:40:44.696Z,4.85
2022-12-19T11:43:44.883Z,5.07
2022-12-19T11:46:29.410Z,4.80
2022-12-19T11:49:04.100Z,4.97
2022-12-19T11:51:52.990Z,5.55
2022-12-19T11:54:30.405Z,4.43
2022-12-19T11:56:57.892Z,5.38
2022-12-19T11:59:37.689Z,4.80
2022-12-19T12:02:16.356Z,4.97
2022-12-19T12:04:54.787Z,4.47
2022-12-19T12:07:49.721Z,4.75
2022-12-19T12:14:53.218Z,4.40
2022-12-19T12:20:34.851Z,4.80
2022-12-19T12:29:29.167Z,5.00
2022-12-19T12:31:07.146Z,5.10
2022-12-19T12:31:12.647Z,4.80
2022-12-19T12:31:16.504Z,4.07
2022-12-19T12:31:50.994Z,4.75
2022-12-19T12:35:33.275Z,4.13
2022-12-19T12:35:38.052Z,4.93
2022-12-19T12:38:21.056Z,4.60
2022-12-19T12:40:42.543Z,5.07
2022-12-19T12:43:46.085Z,4.70
2022-12-19T12:46:19.460Z,4.30
2022-12-19T12:48:53.508Z,4.43
2022-12-19T12:51:21.532Z,4.63
2022-12-19T12:53:49.324Z,4.40
2022-12-19T12:56:18.371Z,4.63
2022-12-19T12:59:05.651Z,3.70
2022-12-19T13:01:40.333Z,3.95
2022-12-19T13:04:13.060Z,3.88
2022-12-19T13:06:40.803Z,3.83
2022-12-19T13:09:13.226Z,4.25
2022-12-19T13:12:13.883Z,3.90
2022-12-19T13:14:44.616Z,3.58
2022-12-19T13:17:17.630Z,4.13
2022-12-19T13:20:17.771Z,4.13
2022-12-19T13:23:01.426Z,4.15
2022-12-19T13:25:31.335Z,4.65
2022-12-19T13:28:14.117Z,3.85
2022-12-19T13:31:16.594Z,4.00
2022-12-19T13:34:16.064Z,4.15
2022-12-19T13:39:51.496Z,4.50
2022-12-19T13:40:10.965Z,5.07
2022-12-19T13:43:10.660Z,4.70
2022-12-19T13:45:41.313Z,5.05
2022-12-19T13:48:16.459Z,5.53
2022-12-19T13:50:47.634Z,6.03
2022-12-19T13:53:22.604Z,5.38
2022-12-19T13:55:49.993Z,5.45
2022-12-19T13:58:29.858Z,5.60
2022-12-19T14:01:01.203Z,5.10
2022-12-19T14:03:44.356Z,5.78
2022-12-19T14:06:20.519Z,5.32
2022-12-19T14:09:25.197Z,5.10
2022-12-19T14:13:41.450Z,5.32
2022-12-19T14:14:47.975Z,5.45
2022-12-19T14:17:17.946Z,4.47
2022-12-19T14:19:53.357Z,5.47
2022-12-19T14:22:38.723Z,5.40
2022-12-19T14:27:57.392Z,4.88
2022-12-19T14:28:18.040Z,5.20
2022-12-19T14:31:02.382Z,4.60
2022-12-19T14:36:34.502Z,4.72
2022-12-19T14:39:27.033Z,5.30
2022-12-19T14:42:09.480Z,5.45
2022-12-19T14:53:51.781Z,5.18
2022-12-19T14:54:38.019Z,5.18
2022-12-19T14:54:44.365Z,4.57
2022-12-19T14:56:31.052Z,4.43
2022-12-19T14:58:58.141Z,4.97
2022-12-19T15:01:27.802Z,4.47
2022-12-19T15:04:51.295Z,4.68
2022-12-19T15:07:08.849Z,4.63
2022-12-19T15:11:00.652Z,4.90
2022-12-19T15:14:54.203Z,4.82
2022-12-19T15:16:00.515Z,5.13
2022-12-19T15:18:33.683Z,4.85
2022-12-19T15:21:02.845Z,4.78
2022-12-19T15:23:30.256Z,4.03
2022-12-19T15:26:06.181Z,4.25
2022-12-19T15:28:43.186Z,4.47
2022-12-19T15:31:41.364Z,4.47
2022-12-19T15:34:46.440Z,4.68
2022-12-19T15:37:13.869Z,5.03
2022-12-19T15:39:41.603Z,5.20
2022-12-19T15:42:21.402Z,5.20
2022-12-19T15:44:49.238Z,5.10
2022-12-19T15:47:19.548Z,5.60
2022-12-19T15:49:46.531Z,5.00
2022-12-19T15:52:17.522Z,5.32
2022-12-19T15:54:49.686Z,4.57
2022-12-19T15:57:38.437Z,5.25
2022-12-19T16:00:08.398Z,4.65
2022-12-19T16:03:13.416Z,4.63
2022-12-19T16:05:23.551Z,5.22
2022-12-19T16:07:50.370Z,5.25
2022-12-19T16:10:17.771Z,5.20
2022-12-19T16:12:50.558Z,5.50
2022-12-19T16:15:26.019Z,4.88
2022-12-19T16:17:53.218Z,4.55
2022-12-19T16:20:22.847Z,4.53
2022-12-19T16:22:49.793Z,4.90
2022-12-19T16:25:16.885Z,4.38
2022-12-19T16:27:44.007Z,4.50
2022-12-19T16:30:20.966Z,4.95
2022-12-19T16:32:48.050Z,4.97
2022-12-19T16:35:34.549Z,4.53
2022-12-19T16:38:07.069Z,4.50
2022-12-19T16:40:33.530Z,4.35
2022-12-19T16:43:13.924Z,4.60
2022-12-19T16:45:40.455Z,3.83
2022-12-19T16:48:18.274Z,4.10
2022-12-19T16:50:44.791Z,4.28
2022-12-19T16:53:11.244Z,4.20
2022-12-19T16:55:37.715Z,4.30
2022-12-19T16:58:04.241Z,4.15
2022-12-19T17:00:30.943Z,4.80
2022-12-19T17:03:18.067Z,4.65
2022-12-19T17:05:44.547Z,4.65
2022-12-19T17:08:14.063Z,4.50
2022-12-19T17:10:43.656Z,4.60
2022-12-19T17:13:12.895Z,4.85
2022-12-19T17:15:39.535Z,5.35
2022-12-19T17:18:24.313Z,5.15
2022-12-19T17:20:50.734Z,4.32
2022-12-19T17:23:20.007Z,5.45
2022-12-19T17:25:46.752Z,5.10
2022-12-19T17:28:13.994Z,5.28
2022-12-19T17:30:42.314Z,5.60
2022-12-19T17:33:15.384Z,4.93
2022-12-19T17:35:42.737Z,5.45
2022-12-19T17:38:12.906Z,5.82
2022-12-19T17:40:40.209Z,5.40
2022-12-19T17:43:06.802Z,6.10
2022-12-19T17:45:34.417Z,5.13
2022-12-19T17:48:03.422Z,5.70
2022-12-19T17:50:40.641Z,5.57
2022-12-19T17:53:13.691Z,5.78
2022-12-19T17:55:40.411Z,4.82
2022-12-19T17:58:06.962Z,4.88
2022-12-19T18:00:33.887Z,5.25
2022-12-19T18:03:05.523Z,5.47
2022-12-19T18:05:35.954Z,5.57
2022-12-19T18:08:03.662Z,5.60
2022-12-19T18:10:32.030Z,5.53
2022-12-19T18:12:58.541Z,5.75
2022-12-19T18:15:25.332Z,4.82
2022-12-19T18:17:53.431Z,5.80
2022-12-19T18:20:31.542Z,4.75
2022-12-19T18:22:59.902Z,5.20
2022-12-19T18:25:31.792Z,5.43
2022-12-19T18:27:58.554Z,6.18
2022-12-19T18:30:25.736Z,6.57
2022-12-19T18:33:01.124Z,5.25
2022-12-19T18:35:47.818Z,6.13
2022-12-19T18:38:20.233Z,6.25
2022-12-19T18:40:47.858Z,6.53
2022-12-19T18:43:15.946Z,5.45
2022-12-19T18:45:44.694Z,5.80
2022-12-19T18:48:20.501Z,5.80
2022-12-19T18:50:46.924Z,6.50
2022-12-19T18:53:17.523Z,5.68
2022-12-19T18:55:44.167Z,5.53
2022-12-19T18:58:10.536Z,5.63
2022-12-19T19:00:38.512Z,5.50
2022-12-19T19:03:10.533Z,6.22
2022-12-19T19:05:39.762Z,6.40
2022-12-19T19:08:15.587Z,5.00
2022-12-19T19:10:42.119Z,5.70
2022-12-19T19:13:10.516Z,5.70
2022-12-19T19:16:05.407Z,5.05
2022-12-19T19:18:36.144Z,5.32
2022-12-19T19:21:04.438Z,5.53
2022-12-19T19:23:36.164Z,6.35
2022-12-19T19:26:03.131Z,5.65
2022-12-19T19:28:30.080Z,6.45
2022-12-19T19:30:58.452Z,6.60
2022-12-19T19:33:37.696Z,6.30
2022-12-19T19:36:12.807Z,6.97
2022-12-19T19:38:43.169Z,6.15
2022-12-19T19:41:09.705Z,6.15
2022-12-19T19:43:36.445Z,6.72
2022-12-19T19:46:03.072Z,6.40
2022-12-19T19:48:30.081Z,5.80
2022-12-19T19:50:56.951Z,5.50
2022-12-19T19:53:23.533Z,5.50
2022-12-19T19:56:00.830Z,5.22
2022-12-19T19:58:28.356Z,3.97
2022-12-19T20:00:54.964Z,4.30
2022-12-19T20:03:23.457Z,6.15
2022-12-19T20:05:50.472Z,4.18
2022-12-19T20:08:17.143Z,4.60
2022-12-19T20:10:43.623Z,5.10
2022-12-19T20:13:11.129Z,4.75
2022-12-19T20:15:39.160Z,5.60
2022-12-19T20:18:08.521Z,5.00
2022-12-19T20:20:35.016Z,5.22
2022-12-19T20:23:02.426Z,4.15
2022-12-19T20:25:28.915Z,4.10
2022-12-19T20:27:55.319Z,4.97
2022-12-19T20:30:21.688Z,4.43
2022-12-19T20:32:48.073Z,4.40
2022-12-19T20:35:15.591Z,3.78
2022-12-19T20:37:42.421Z,3.70
2022-12-19T20:40:09.703Z,4.15
2022-12-19T20:42:36.111Z,4.07
2022-12-19T20:45:03.004Z,3.75
2022-12-19T20:47:30.411Z,4.05
2022-12-19T20:49:56.822Z,3.83
2022-12-19T20:52:23.281Z,4.68
2022-12-19T20:54:50.366Z,3.58
2022-12-19T20:57:16.800Z,3.50
2022-12-19T20:59:43.188Z,3.40
2022-12-19T21:02:11.361Z,3.95
2022-12-19T21:04:38.039Z,4.13
2022-12-19T21:07:04.628Z,4.30
2022-12-19T21:09:31.324Z,4.53
2022-12-19T21:11:57.745Z,4.90
2022-12-19T21:14:24.200Z,3.95
2022-12-19T21:16:51.027Z,4.22
2022-12-19T21:19:17.487Z,3.80
2022-12-19T21:21:44.618Z,3.83
2022-12-19T21:24:10.996Z,4.65
2022-12-19T21:26:37.484Z,4.72
2022-12-19T21:29:04.962Z,4.22
2022-12-19T21:31:31.854Z,4.13
2022-12-19T21:34:01.340Z,3.47
2022-12-19T21:36:29.139Z,3.88
2022-12-19T21:38:58.157Z,3.53
2022-12-19T21:41:24.689Z,3.80
2022-12-19T21:43:55.711Z,3.63
2022-12-19T21:46:27.352Z,3.63
2022-12-19T21:48:56.274Z,3.65
2022-12-19T21:51:27.016Z,3.80
2022-12-19T21:53:55.487Z,3.90
2022-12-19T21:56:28.201Z,4.15
2022-12-19T21:59:00.795Z,3.10
2022-12-19T22:01:28.061Z,3.53
2022-12-19T22:03:59.631Z,3.88
2022-12-19T22:06:29.661Z,4.57
2022-12-19T22:08:56.512Z,3.33
2022-12-19T22:11:23.593Z,3.95
2022-12-19T22:13:50.497Z,3.80
2022-12-19T22:16:17.378Z,3.28
2022-12-19T22:18:44.005Z,3.88
2022-12-19T22:21:15.166Z,3.08
2022-12-19T22:23:41.840Z,3.97
2022-12-19T22:26:14.549Z,3.58
2022-12-19T22:28:44.629Z,3.58
2022-12-19T22:31:20.902Z,4.47
2022-12-19T22:33:49.063Z,3.53
2022-12-19T22:36:19.692Z,3.60
2022-12-19T22:38:49.795Z,3.85
2022-12-19T22:41:18.024Z,3.78
2022-12-19T22:43:45.394Z,3.22
2022-12-19T22:46:17.724Z,3.67
2022-12-19T22:48:46.172Z,3.83
2022-12-19T22:51:13.536Z,3.72
2022-12-19T22:53:39.974Z,3.75
2022-12-19T22:56:15.184Z,4.43
2022-12-19T22:58:44.056Z,3.42
2022-12-19T23:01:25.305Z,3.33
2022-12-19T23:03:53.771Z,2.85
2022-12-19T23:06:21.426Z,3.10
2022-12-19T23:08:48.121Z,3.40
2022-12-19T23:11:20.240Z,3.20
2022-12-19T23:13:48.070Z,3.67
2022-12-19T23:16:15.497Z,3.15
2022-12-19T23:18:42.036Z,4.18
2022-12-19T23:21:12.609Z,2.33
2022-12-19T23:23:41.986Z,2.95
2022-12-19T23:26:15.514Z,2.83
2022-12-19T23:28:44.595Z,3.17
2022-12-19T23:31:14.757Z,3.20
2022-12-19T23:33:41.281Z,3.03
2022-12-19T23:36:08.112Z,2.83
2022-12-19T23:38:34.617Z,3.00
2022-12-19T23:41:05.754Z,2.75
2022-12-19T23:43:33.803Z,3.30
2022-12-19T23:46:04.508Z,2.75
2022-12-19T23:48:30.952Z,2.83
2022-12-19T23:51:06.456Z,2.30
2022-12-19T23:53:33.297Z,2.40
2022-12-19T23:56:01.223Z,2.92
2022-12-19T23:58:27.640Z,2.75
